Terminal Aerodrome Forecast
Issued by NWS

Home | Current Version | Previous Version | Text Only | Print | Product List | Glossary On
Versions: 1 2 3 4 5 6 7 8 9 10 11 12 13 14 15 16 17 18 19 20 21 22
000
FTUS43 KDLH 202339
TAFHYR
TAF
KHYR 202339Z 2100/2124 05011G16KT 4SM -RA SCT015 BKN026 OVC035
      TEMPO 2100/2102 2SM -RA BR BKN015 OVC025
     FM210300 08009G16KT 3SM -SHRA OVC008
     FM210800 09004KT 3SM -SHRA BKN003 OVC012
     FM211400 20006KT 5SM -SHRA BR OVC006
     FM212100 29007KT P6SM VCSH SCT008 OVC013=

USA.gov is the U.S. government's official web portal to all federal, state and local government web resources and services.